Map

Track Data

SID SEASON NUMBER BASIN SUBBASIN NAME ISO_TIME NATURE LAT LON WMO_WIND WMO_PRES WMO_AGENCY TRACK_TYPE DIST2LAND LANDFALL IFLAG USA_AGENCY USA_ATCF_ID USA_LAT USA_LON USA_RECORD USA_STATUS USA_WIND USA_PRES USA_SSHS USA_R34_NE USA_R34_SE USA_R34_SW USA_R34_NW USA_R50_NE USA_R50_SE USA_R50_SW USA_R50_NW USA_R64_NE USA_R64_SE USA_R64_SW USA_R64_NW USA_POCI USA_ROCI USA_RMW USA_EYE TOKYO_LAT TOKYO_LON TOKYO_GRADE TOKYO_WIND TOKYO_PRES TOKYO_R50_DIR TOKYO_R50_LONG TOKYO_R50_SHORT TOKYO_R30_DIR TOKYO_R30_LONG TOKYO_R30_SHORT TOKYO_LAND CMA_LAT CMA_LON CMA_CAT CMA_WIND CMA_PRES HKO_LAT HKO_LON HKO_CAT HKO_WIND HKO_PRES NEWDELHI_LAT NEWDELHI_LON NEWDELHI_GRADE NEWDELHI_WIND NEWDELHI_PRES NEWDELHI_CI NEWDELHI_DP NEWDELHI_POCI REUNION_LAT REUNION_LON REUNION_TYPE REUNION_WIND REUNION_PRES REUNION_TNUM REUNION_CI REUNION_RMW REUNION_R34_NE REUNION_R34_SE REUNION_R34_SW REUNION_R34_NW REUNION_R50_NE REUNION_R50_SE REUNION_R50_SW REUNION_R50_NW REUNION_R64_NE REUNION_R64_SE REUNION_R64_SW REUNION_R64_NW BOM_LAT BOM_LON BOM_TYPE BOM_WIND BOM_PRES BOM_TNUM BOM_CI BOM_RMW BOM_R34_NE BOM_R34_SE BOM_R34_SW BOM_R34_NW BOM_R50_NE BOM_R50_SE BOM_R50_SW BOM_R50_NW BOM_R64_NE BOM_R64_SE BOM_R64_SW BOM_R64_NW BOM_ROCI BOM_POCI BOM_EYE BOM_POS_METHOD BOM_PRES_METHOD NADI_LAT NADI_LON NADI_CAT NADI_WIND NADI_PRES WELLINGTON_LAT WELLINGTON_LON WELLINGTON_WIND WELLINGTON_PRES DS824_LAT DS824_LON DS824_STAGE DS824_WIND DS824_PRES TD9636_LAT TD9636_LON TD9636_STAGE TD9636_WIND TD9636_PRES TD9635_LAT TD9635_LON TD9635_WIND TD9635_PRES TD9635_ROCI NEUMANN_LAT NEUMANN_LON NEUMANN_CLASS NEUMANN_WIND NEUMANN_PRES MLC_LAT MLC_LON MLC_CLASS MLC_WIND MLC_PRES USA_GUST BOM_GUST BOM_GUST_PER REUNION_GUST REUNION_GUST_PER USA_SEAHGT USA_SEARAD_NE USA_SEARAD_SE USA_SEARAD_SW USA_SEARAD_NW STORM_SPEED STORM_DIR
1911160N18089 1911 37 NI BB NOT_NAMED 1911-06-09 00:00:00 TS 17.9000 89.2000 main 375 345 _________O____ -1 17.9000 89.2000 TC 34 6 291
1911160N18089 1911 37 NI BB NOT_NAMED 1911-06-09 03:00:00 TS 18.0018 88.9268 main 345 314 _________PO___ -1 18.0527 88.7902 TC 36 17.9000 89.2000 2 6 291
1911160N18089 1911 37 NI BB NOT_NAMED 1911-06-09 06:00:00 TS 18.1334 88.5657 main 314 268 _________OP___ -1 18.2000 88.4000 TC 39 18.0334 88.8143 2 7 291
1911160N18089 1911 37 NI BB NOT_NAMED 1911-06-09 09:00:00 TS 18.2699 88.2097 main 268 238 _________PP___ -1 18.3424 88.0424 TC 42 18.1732 88.4327 2 7 293
1911160N18089 1911 37 NI BB NOT_NAMED 1911-06-09 12:00:00 TS 18.4132 87.8799 main 238 194 _________OP___ -1 18.5000 87.7000 TC 45 18.3263 88.0598 2 7 297
1911160N18089 1911 37 NI BB NOT_NAMED 1911-06-09 15:00:00 TS 18.5962 87.5212 main 194 158 _________PO___ -1 18.6925 87.3425 TC 45 18.5000 87.7000 3 8 300
1911160N18089 1911 37 NI BB NOT_NAMED 1911-06-09 18:00:00 TS 18.7988 87.1783 main 158 123 _________OP___ -1 18.9000 87.0000 TC 45 18.6976 87.3566 3 8 304
1911160N18089 1911 37 NI BB NOT_NAMED 1911-06-09 21:00:00 TS 19.0110 86.8600 main 123 91 _________PP___ -1 19.1149 86.6925 TC 45 18.9072 87.0276 3 7 305
1911160N18089 1911 37 NI BB NOT_NAMED 1911-06-10 00:00:00 TS 19.2066 86.5549 main 91 70 _________OP___ -1 19.3000 86.4000 TC 45 19.1132 86.7098 3 7 301
1911160N18089 1911 37 NI BB NOT_NAMED 1911-06-10 03:00:00 TS 19.3537 86.2499 main 56 39 _________PO___ -1 19.4075 86.0998 TC 45 19.3000 86.4000 3 6 294
1911160N18089 1911 37 NI BB NOT_NAMED 1911-06-10 06:00:00 TS 19.4651 85.9401 main 35 15 _________OP___ -1 19.5000 85.8000 TC 45 19.4302 86.0801 3 6 292
1911160N18089 1911 37 NI BB NOT_NAMED 1911-06-10 09:00:00 TS 19.5887 85.6309 main 15 0 _________PP___ -1 19.6350 85.4925 TC 45 19.5424 85.7694 3 6 295
1911160N18089 1911 37 NI BB NOT_NAMED 1911-06-10 12:00:00 TS 19.7292 85.3370 main 0 0 _________OP___ -1 19.8000 85.2000 TC 45 19.6584 85.4739 3 6 300
1911160N18089 1911 37 NI BB NOT_NAMED 1911-06-10 15:00:00 TS 19.8925 85.0675 main 0 0 _________PO___ -1 19.9850 84.9349 TC 41 19.8000 85.2000 3 6 307
1911160N18089 1911 37 NI BB NOT_NAMED 1911-06-10 18:00:00 TS 20.0898 84.8306 main 0 0 _________OP___ -1 20.2000 84.7000 TC 37 19.9797 84.9612 3 6 315
1911160N18089 1911 37 NI BB NOT_NAMED 1911-06-10 21:00:00 TS 20.3122 84.6246 main 0 0 _________PP___ -1 20.4349 84.5073 TC 33 20.1896 84.7419 3 6 321
1911160N18089 1911 37 NI BB NOT_NAMED 1911-06-11 00:00:00 TS 20.5649 84.4133 main 0 0 _________OP___ -1 20.7000 84.3000 TC 30 20.4297 84.5267 3 7 320
1911160N18089 1911 37 NI BB NOT_NAMED 1911-06-11 03:00:00 TS 20.8425 84.1538 main 0 0 _________PO___ -1 20.9851 84.0075 TC 30 20.7000 84.3000 1 8 318
1911160N18089 1911 37 NI BB NOT_NAMED 1911-06-11 06:00:00 TS 21.1401 83.8536 main 0 0 _________OP___ -1 21.3000 83.7000 TC 30 20.9803 84.0073 1 8 319
1911160N18089 1911 37 NI BB NOT_NAMED 1911-06-11 09:00:00 TS 21.4627 83.5665 main 0 0 _________PP___ -1 21.6350 83.4275 TC 30 21.2904 83.7056 1 8 323
1911160N18089 1911 37 NI BB NOT_NAMED 1911-06-11 12:00:00 TS 21.8152 83.3130 main 0 0 _________OP___ -1 22.0000 83.2000 TC 30 21.6303 83.4261 1 8 330
1911160N18089 1911 37 NI BB NOT_NAMED 1911-06-11 15:00:00 TS 22.1925 83.1063 main 0 0 _________PO___ -1 22.3850 83.0125 TC 30 22.0000 83.2000 1 9 338
1911160N18089 1911 37 NI BB NOT_NAMED 1911-06-11 18:00:00 TS 22.6203 82.9654 main 0 0 _________OP___ -1 22.8000 82.9000 TC 30 22.4406 83.0309 1 9 348
1911160N18089 1911 37 NI BB NOT_NAMED 1911-06-11 21:00:00 TS 23.0910 82.8924 main 0 0 _________PP___ -1 23.2800 82.8624 TC 30 22.9021 82.9225 1 9 355
1911160N18089 1911 37 NI BB NOT_NAMED 1911-06-12 00:00:00 TS 23.5188 82.8889 main 0 0 _________OP___ -1 23.7000 82.9000 TC 30 23.3376 82.8778 1 7 3
1911160N18089 1911 37 NI BB NOT_NAMED 1911-06-12 03:00:00 TS 23.8262 82.9350 main 0 0 _________PO___ -1 23.9525 82.9700 TC 30 23.7000 82.9000 1 5 14
1911160N18089 1911 37 NI BB NOT_NAMED 1911-06-12 06:00:00 TS 24.0287 83.0342 main 0 0 _________OP___ -1 24.1000 83.1000 TC 30 23.9574 82.9685 1 4 33
1911160N18089 1911 37 NI BB NOT_NAMED 1911-06-12 09:00:00 TS 24.1824 83.1896 main 0 0 _________PP___ -1 24.2300 83.2775 TC 30 24.1349 83.1018 1 4 53
1911160N18089 1911 37 NI BB NOT_NAMED 1911-06-12 12:00:00 TS 24.2724 83.3921 main 0 0 _________OP___ -1 24.3000 83.5000 TC 30 24.2449 83.2842 1 4 72
1911160N18089 1911 37 NI BB NOT_NAMED 1911-06-12 15:00:00 TS 24.3112 83.6213 main 0 0 _________PO___ -1 24.3225 83.7425 TC 30 24.3000 83.5000 1 4 83
1911160N18089 1911 37 NI BB NOT_NAMED 1911-06-12 18:00:00 TS 24.3227 83.8504 main 0 0 _________OP___ -1 24.3000 84.0000 TC 30 24.3454 83.7009 1 4 91
1911160N18089 1911 37 NI BB NOT_NAMED 1911-06-12 21:00:00 TS 24.3060 84.0836 main 0 0 _________PP___ -1 24.2724 84.2349 TC 30 24.3396 83.9323 1 5 100
1911160N18089 1911 37 NI BB NOT_NAMED 1911-06-13 00:00:00 TS 24.2445 84.3488 main 0 0 _________OP___ -1 24.2000 84.5000 TC 30 24.2890 84.1976 1 6 108
1911160N18089 1911 37 NI BB NOT_NAMED 1911-06-13 03:00:00 TS 24.1325 84.6638 main 0 0 _________PO___ -1 24.0650 84.8275 TC 30 24.2000 84.5000 1 7 113
1911160N18089 1911 37 NI BB NOT_NAMED 1911-06-13 06:00:00 TS 23.9869 85.0198 main 0 0 _________OP___ -1 23.9000 85.2000 TC 30 24.0739 84.8396 1 7 114
1911160N18089 1911 37 NI BB NOT_NAMED 1911-06-13 09:00:00 TS 23.8288 85.4067 main 0 0 _________PP___ -1 23.7425 85.6000 TC 30 23.9151 85.2133 1 8 114
1911160N18089 1911 37 NI BB NOT_NAMED 1911-06-13 12:00:00 TS 23.6744 85.8026 main 0 0 _________OP___ -1 23.6000 86.0000 TC 30 23.7488 85.6053 1 8 112
1911160N18089 1911 37 NI BB NOT_NAMED 1911-06-13 15:00:00 TS 23.5424 86.1750 main 0 0 _________PO___ -1 23.4848 86.3499 TC 30 23.6000 86.0000 1 7 109
1911160N18089 1911 37 NI BB NOT_NAMED 1911-06-13 18:00:00 TS 23.4456 86.5476 main 0 0 _________OP___ -1 23.4000 86.7000 TC 30 23.4913 86.3951 1 7 104
1911160N18089 1911 37 NI BB NOT_NAMED 1911-06-13 21:00:00 TS 23.3701 86.9512 main 0 0 _________PP___ -1 23.3351 87.1150 TC 30 23.4051 86.7873 1 7 100
1911160N18089 1911 37 NI BB NOT_NAMED 1911-06-14 00:00:00 TS 23.3207 87.3304 main 0 0 _________OP___ -1 23.3000 87.5000 TC 30 23.3414 87.1609 1 6 97
1911160N18089 1911 37 NI BB NOT_NAMED 1911-06-14 03:00:00 TS 23.2962 87.6362 main 0 0 _________PO___ -1 23.2923 87.7724 TC 30 23.3000 87.5000 1 5 94
1911160N18089 1911 37 NI BB NOT_NAMED 1911-06-14 06:00:00 TS 23.2829 87.8929 main 0 0 _________OP___ -1 23.3000 88.0000 TC 30 23.2658 87.7858 1 5 93
1911160N18089 1911 37 NI BB NOT_NAMED 1911-06-14 09:00:00 TS 23.2734 88.1437 main 0 0 _________PP___ -1 23.2925 88.2500 TC 30 23.2544 88.0374 1 5 90
1911160N18089 1911 37 NI BB NOT_NAMED 1911-06-14 12:00:00 TS 23.2829 88.3851 main 0 0 _________OP___ -1 23.3000 88.5000 TC 30 23.2659 88.2703 1 4 84
1911160N18089 1911 37 NI BB NOT_NAMED 1911-06-14 15:00:00 TS 23.3175 88.6250 main 0 0 _________PO___ -1 23.3350 88.7500 TC 30 23.3000 88.5000 1 4 78
1911160N18089 1911 37 NI BB NOT_NAMED 1911-06-14 18:00:00 TS 23.3747 88.8508 main 0 0 _________OP___ -1 23.4000 89.0000 TC 30 23.3557 88.7389 1 5 72
1911160N18089 1911 37 NI BB NOT_NAMED 1911-06-14 21:00:00 TS 23.4539 89.0923 main 0 0 _________PP___ -1 23.4926 89.2499 TC 30 23.4280 88.9872 1 5 69
1911160N18089 1911 37 NI BB NOT_NAMED 1911-06-15 00:00:00 TS 23.5409 89.3279 main 0 0 _________OP___ -1 23.6000 89.5000 TC 30 23.5114 89.2419 1 4 69
1911160N18089 1911 37 NI BB NOT_NAMED 1911-06-15 03:00:00 NR 23.6000 89.5000 main 0 __________O___ -1 TC 23.6000 89.5000 1 3 69

About IBTrACS Database

This database is a web-friendly format of International Best Track Archive for Climate Stewardship (IBTrACS), a global best track data archive curated by NOAA dating back to 1842.

Updated: 2021-10-08